createdAt,value
2022-12-18T00:01:24.884Z,27.05
2022-12-18T00:03:53.168Z,26.88
2022-12-18T00:06:21.338Z,26.89
2022-12-18T00:08:48.919Z,26.91
2022-12-18T00:11:21.641Z,27.32
2022-12-18T00:13:49.543Z,26.93
2022-12-18T00:16:19.455Z,26.42
2022-12-18T00:18:46.165Z,26.07
2022-12-18T00:21:13.824Z,26.28
2022-12-18T00:23:43.415Z,26.15
2022-12-18T00:26:36.474Z,25.65
2022-12-18T00:29:06.937Z,26.19
2022-12-18T00:31:34.699Z,26.07
2022-12-18T00:34:01.893Z,26.44
2022-12-18T00:36:32.201Z,25.96
2022-12-18T00:39:01.236Z,26.17
2022-12-18T00:41:28.965Z,26.56
2022-12-18T00:43:56.565Z,25.52
2022-12-18T00:46:23.156Z,25.59
2022-12-18T00:48:49.778Z,25.68
2022-12-18T00:51:16.385Z,26.04
2022-12-18T00:53:42.984Z,26.10
2022-12-18T00:56:09.644Z,25.63
2022-12-18T00:58:37.652Z,25.25
2022-12-18T01:01:08.202Z,24.61
2022-12-18T01:03:34.971Z,25.04
2022-12-18T01:06:10.465Z,25.00
2022-12-18T01:08:37.258Z,24.22
2022-12-18T01:11:14.478Z,24.66
2022-12-18T01:13:41.482Z,24.85
2022-12-18T01:16:09.659Z,24.55
2022-12-18T01:18:36.891Z,25.87
2022-12-18T01:21:08.729Z,25.13
2022-12-18T01:23:36.584Z,25.43
2022-12-18T01:26:26.271Z,26.38
2022-12-18T01:28:54.756Z,27.15
2022-12-18T01:31:28.584Z,27.12
2022-12-18T01:33:56.796Z,26.82
2022-12-18T01:36:27.348Z,26.58
2022-12-18T01:38:55.230Z,26.97
2022-12-18T01:41:24.720Z,26.89
2022-12-18T01:43:58.964Z,26.92
2022-12-18T01:46:27.870Z,27.44
2022-12-18T01:49:03.121Z,28.06
2022-12-18T01:51:31.611Z,27.72
2022-12-18T01:54:00.262Z,27.83
2022-12-18T01:56:27.209Z,27.60
2022-12-18T01:59:01.981Z,27.90
2022-12-18T02:01:32.507Z,27.32
2022-12-18T02:04:26.645Z,26.81
2022-12-18T02:07:25.789Z,27.75
2022-12-18T02:09:59.949Z,27.26
2022-12-18T02:12:42.816Z,27.49
2022-12-18T02:15:28.004Z,25.85
2022-12-18T02:18:15.419Z,27.23
2022-12-18T02:20:54.332Z,26.24
2022-12-18T02:23:46.701Z,26.01
2022-12-18T02:26:38.689Z,26.63
2022-12-18T02:29:24.994Z,26.53
2022-12-18T02:31:59.156Z,27.06
2022-12-18T02:34:30.881Z,26.87
2022-12-18T02:37:03.237Z,27.52
2022-12-18T02:39:33.343Z,26.62
2022-12-18T02:42:01.239Z,26.77
2022-12-18T02:44:27.836Z,27.89
2022-12-18T02:46:55.081Z,27.28
2022-12-18T02:49:21.624Z,27.98
2022-12-18T02:52:02.648Z,27.03
2022-12-18T02:54:44.013Z,27.12
2022-12-18T02:57:51.388Z,26.45
2022-12-18T03:00:45.028Z,25.28
2022-12-18T03:03:14.985Z,26.13
2022-12-18T03:05:49.002Z,26.23
2022-12-18T03:08:22.533Z,25.78
2022-12-18T03:11:10.719Z,25.42
2022-12-18T03:13:59.789Z,25.79
2022-12-18T03:16:32.166Z,25.74
2022-12-18T03:19:15.032Z,26.40
2022-12-18T03:21:50.361Z,26.80
2022-12-18T03:24:19.811Z,26.04
2022-12-18T03:26:53.962Z,25.58
2022-12-18T03:29:30.765Z,26.22
2022-12-18T03:32:06.972Z,27.43
2022-12-18T03:34:37.742Z,27.02
2022-12-18T03:37:06.104Z,25.67
2022-12-18T03:39:33.666Z,26.27
2022-12-18T03:42:16.952Z,26.78
2022-12-18T03:45:08.948Z,26.37
2022-12-18T03:47:54.017Z,26.51
2022-12-18T03:50:38.209Z,27.79
2022-12-18T03:53:23.880Z,27.55
2022-12-18T03:55:52.920Z,26.54
2022-12-18T03:58:25.608Z,26.93
2022-12-18T04:00:57.369Z,27.11
2022-12-18T04:03:26.929Z,27.80
2022-12-18T04:05:56.543Z,27.20
2022-12-18T04:08:25.689Z,27.27
2022-12-18T04:10:52.658Z,27.38
2022-12-18T04:13:39.982Z,26.98
2022-12-18T04:16:28.493Z,27.13
2022-12-18T04:18:55.403Z,26.10
2022-12-18T04:21:22.073Z,27.16
2022-12-18T04:23:50.701Z,26.90
2022-12-18T04:26:17.453Z,26.31
2022-12-18T04:28:44.123Z,27.34
2022-12-18T04:31:10.927Z,28.46
2022-12-18T04:33:37.994Z,27.96
2022-12-18T04:36:05.488Z,27.02
2022-12-18T04:38:32.235Z,27.05
2022-12-18T04:40:59.300Z,27.81
2022-12-18T04:43:27.166Z,27.95
2022-12-18T04:45:53.946Z,28.04
2022-12-18T04:48:21.579Z,27.28
2022-12-18T04:50:48.658Z,26.55
2022-12-18T04:53:15.283Z,27.17
2022-12-18T04:55:41.913Z,26.74
2022-12-18T04:58:08.539Z,27.13
2022-12-18T05:00:36.418Z,27.55
2022-12-18T05:03:03.886Z,26.95
2022-12-18T05:05:31.849Z,26.71
2022-12-18T05:07:58.684Z,26.85
2022-12-18T05:10:25.336Z,26.98
2022-12-18T05:12:51.943Z,27.16
2022-12-18T05:15:18.546Z,26.71
2022-12-18T05:17:45.124Z,25.82
2022-12-18T05:20:11.730Z,27.22
2022-12-18T05:22:38.395Z,26.85
2022-12-18T05:25:05.406Z,26.62
2022-12-18T05:27:31.995Z,27.11
2022-12-18T05:29:58.617Z,27.27
2022-12-18T05:32:25.252Z,26.51
2022-12-18T05:34:51.853Z,27.58
2022-12-18T05:37:18.441Z,28.26
2022-12-18T05:39:45.196Z,29.13
2022-12-18T05:42:11.850Z,28.35
2022-12-18T05:44:38.497Z,28.31
2022-12-18T05:47:05.271Z,28.56
2022-12-18T05:49:31.910Z,28.77
2022-12-18T05:51:58.568Z,28.37
2022-12-18T05:54:25.164Z,28.27
2022-12-18T05:56:51.776Z,27.72
2022-12-18T05:59:18.461Z,27.25
2022-12-18T06:01:45.201Z,27.10
2022-12-18T06:04:11.964Z,27.82
2022-12-18T06:06:38.673Z,27.36
2022-12-18T06:09:05.727Z,27.34
2022-12-18T06:11:33.078Z,27.65
2022-12-18T06:14:00.290Z,27.75
2022-12-18T06:16:29.231Z,26.74
2022-12-18T06:19:02.676Z,27.19
2022-12-18T06:21:29.997Z,28.24
2022-12-18T06:23:56.901Z,26.82
2022-12-18T06:26:28.089Z,26.93
2022-12-18T06:28:55.429Z,27.25
2022-12-18T06:31:22.078Z,27.06
2022-12-18T06:33:48.738Z,27.76
2022-12-18T06:36:15.369Z,27.76
2022-12-18T06:38:43.825Z,27.61
2022-12-18T06:41:11.528Z,27.40
2022-12-18T06:43:38.893Z,28.54
2022-12-18T06:46:06.717Z,28.64
2022-12-18T06:48:34.160Z,28.75
2022-12-18T06:51:01.265Z,28.57
2022-12-18T06:53:28.429Z,27.43
2022-12-18T06:56:09.469Z,27.32
2022-12-18T06:58:36.861Z,27.31
2022-12-18T07:01:06.524Z,25.69
2022-12-18T07:03:33.407Z,26.02
2022-12-18T07:06:00.092Z,24.91
2022-12-18T07:08:27.090Z,25.41
2022-12-18T07:10:56.300Z,26.09
2022-12-18T07:13:23.484Z,26.56
2022-12-18T07:15:50.760Z,25.18
2022-12-18T07:18:17.409Z,23.08
2022-12-18T07:20:44.004Z,23.37
2022-12-18T07:23:10.631Z,25.05
2022-12-18T07:25:38.096Z,24.67
2022-12-18T07:28:05.301Z,23.33
2022-12-18T07:30:32.216Z,22.37
2022-12-18T07:32:58.849Z,21.46
2022-12-18T07:35:25.646Z,20.78
2022-12-18T07:37:52.331Z,21.45
2022-12-18T07:40:19.061Z,21.82
2022-12-18T07:42:45.758Z,22.74
2022-12-18T07:45:12.392Z,22.51
2022-12-18T07:47:39.050Z,20.87
2022-12-18T07:50:06.561Z,21.66
2022-12-18T07:52:33.221Z,21.80
2022-12-18T07:55:00.056Z,22.34
2022-12-18T07:57:49.369Z,21.23
2022-12-18T08:00:13.955Z,21.51
2022-12-18T08:02:40.713Z,21.85
2022-12-18T08:05:09.336Z,21.21
2022-12-18T08:07:35.935Z,21.33
2022-12-18T08:10:02.681Z,20.38
2022-12-18T08:12:30.139Z,20.64
2022-12-18T08:14:56.729Z,22.53
2022-12-18T08:17:23.339Z,21.23
2022-12-18T08:19:50.226Z,21.51
2022-12-18T08:22:16.922Z,21.67
2022-12-18T08:24:43.766Z,21.84
2022-12-18T08:27:28.980Z,21.75
2022-12-18T08:29:56.934Z,20.84
2022-12-18T08:32:24.054Z,20.50
2022-12-18T08:34:50.764Z,19.90
2022-12-18T08:37:17.369Z,20.94
2022-12-18T08:39:45.081Z,22.09
2022-12-18T08:42:11.680Z,21.99
2022-12-18T08:44:38.332Z,21.66
2022-12-18T08:47:06.351Z,21.88
2022-12-18T08:49:33.800Z,23.00
2022-12-18T08:52:00.469Z,21.60
2022-12-18T08:54:27.437Z,32.38
2022-12-18T08:56:54.081Z,23.66
2022-12-18T08:59:20.834Z,21.17
2022-12-18T09:01:48.674Z,21.59
2022-12-18T09:04:15.930Z,21.60
2022-12-18T09:06:42.523Z,21.39
2022-12-18T09:09:10.645Z,21.17
2022-12-18T09:11:37.270Z,21.60
2022-12-18T09:14:04.119Z,22.37
2022-12-18T09:16:33.120Z,21.89
2022-12-18T09:19:00.316Z,22.16
2022-12-18T09:21:29.696Z,21.54
2022-12-18T09:23:57.059Z,21.77
2022-12-18T09:26:25.971Z,21.34
2022-12-18T09:28:52.855Z,20.47
2022-12-18T09:31:23.023Z,22.10
2022-12-18T09:33:49.649Z,21.68
2022-12-18T09:36:18.640Z,22.04
2022-12-18T09:38:45.752Z,22.24
2022-12-18T09:41:36.935Z,22.52
2022-12-18T09:44:19.463Z,22.04
2022-12-18T09:46:59.036Z,21.83
2022-12-18T09:49:31.604Z,21.90
2022-12-18T09:52:00.786Z,22.96
2022-12-18T09:54:36.563Z,22.72
2022-12-18T09:57:03.462Z,23.09
2022-12-18T09:59:39.890Z,22.55
2022-12-18T10:02:21.795Z,23.60
2022-12-18T10:05:04.746Z,23.52
2022-12-18T10:07:51.641Z,23.18
2022-12-18T10:10:24.474Z,23.05
2022-12-18T10:13:21.776Z,23.91
2022-12-18T10:16:28.331Z,24.03
2022-12-18T10:19:15.973Z,22.79
2022-12-18T10:21:58.729Z,22.77
2022-12-18T10:24:43.279Z,22.63
2022-12-18T10:27:25.160Z,23.50
2022-12-18T10:29:52.911Z,22.72
2022-12-18T10:32:29.213Z,23.20
2022-12-18T10:35:00.834Z,23.38
2022-12-18T10:37:30.374Z,22.43
2022-12-18T10:40:21.903Z,22.53
2022-12-18T10:43:27.533Z,22.94
2022-12-18T10:46:16.905Z,22.64
2022-12-18T10:48:49.368Z,22.02
2022-12-18T10:51:27.127Z,22.79
2022-12-18T10:54:07.593Z,22.09
2022-12-18T10:56:37.722Z,22.16
2022-12-18T10:59:10.379Z,22.34
2022-12-18T11:01:52.669Z,22.36
2022-12-18T11:04:32.260Z,23.07
2022-12-18T11:07:00.218Z,22.78
2022-12-18T11:09:32.513Z,22.86
2022-12-18T11:12:06.842Z,24.48
2022-12-18T11:14:46.814Z,23.32
2022-12-18T11:17:33.142Z,23.31
2022-12-18T11:20:07.678Z,23.89
2022-12-18T11:22:38.506Z,24.56
2022-12-18T11:25:33.429Z,24.77
2022-12-18T11:28:37.909Z,24.59
2022-12-18T11:31:24.899Z,25.54
2022-12-18T11:34:26.843Z,25.06
2022-12-18T11:36:46.800Z,24.52
2022-12-18T11:39:28.698Z,24.02
2022-12-18T11:42:20.468Z,24.12
2022-12-18T11:45:01.939Z,23.39
2022-12-18T11:47:44.659Z,23.93
2022-12-18T11:50:24.489Z,23.75
2022-12-18T11:52:56.564Z,23.36
2022-12-18T11:55:46.315Z,23.23
2022-12-18T11:58:48.792Z,22.93
2022-12-18T12:01:44.922Z,23.21
2022-12-18T12:04:28.299Z,24.09
2022-12-18T12:07:35.379Z,23.01
2022-12-18T12:10:27.165Z,23.61
2022-12-18T12:13:11.602Z,22.90
2022-12-18T12:15:56.575Z,23.11
2022-12-18T12:18:35.492Z,23.59
2022-12-18T12:21:08.172Z,23.18
2022-12-18T12:23:40.975Z,23.43
2022-12-18T12:26:24.146Z,23.80
2022-12-18T12:29:16.611Z,22.33
2022-12-18T12:31:59.461Z,23.58
2022-12-18T12:34:42.825Z,23.77
2022-12-18T12:37:24.418Z,23.59
2022-12-18T12:39:55.396Z,22.93
2022-12-18T12:42:39.636Z,23.01
2022-12-18T12:45:14.783Z,23.24
2022-12-18T12:47:45.459Z,23.04
2022-12-18T12:50:19.987Z,23.66
2022-12-18T12:52:56.628Z,23.42
2022-12-18T12:55:27.649Z,22.39
2022-12-18T12:58:02.684Z,22.68
2022-12-18T13:00:42.413Z,22.10
2022-12-18T13:03:33.929Z,21.36
2022-12-18T13:06:30.685Z,21.32
2022-12-18T13:09:01.233Z,22.18
2022-12-18T13:11:46.895Z,21.44
2022-12-18T13:14:24.249Z,22.16
2022-12-18T13:16:52.413Z,22.35
2022-12-18T13:19:26.512Z,22.17
2022-12-18T13:21:56.294Z,22.46
2022-12-18T13:24:31.374Z,21.94
2022-12-18T13:26:58.114Z,22.50
2022-12-18T13:29:43.143Z,21.49
2022-12-18T13:32:23.485Z,22.02
2022-12-18T13:35:19.094Z,22.31
2022-12-18T13:37:55.496Z,22.23
2022-12-18T13:40:47.867Z,22.63
2022-12-18T13:43:20.282Z,22.55
2022-12-18T13:46:03.155Z,22.02
2022-12-18T13:48:35.341Z,22.95
2022-12-18T13:51:01.953Z,23.11
2022-12-18T13:53:34.021Z,23.26
2022-12-18T13:56:01.086Z,23.00
2022-12-18T13:58:27.891Z,23.77
2022-12-18T14:00:55.136Z,22.69
2022-12-18T14:03:26.028Z,23.10
2022-12-18T14:06:01.147Z,23.52
2022-12-18T14:08:36.003Z,24.07
2022-12-18T14:11:06.476Z,23.74
2022-12-18T14:13:40.615Z,24.17
2022-12-18T14:16:12.250Z,24.04
2022-12-18T14:18:47.640Z,24.05
2022-12-18T14:21:21.891Z,23.57
2022-12-18T14:23:48.944Z,23.26
2022-12-18T14:26:25.886Z,22.92
2022-12-18T14:28:52.613Z,23.25
2022-12-18T14:31:25.893Z,23.26
2022-12-18T14:33:53.289Z,23.31
2022-12-18T14:36:27.526Z,24.05
2022-12-18T14:38:59.531Z,23.44
2022-12-18T14:41:27.553Z,23.55
2022-12-18T14:43:55.561Z,24.27
2022-12-18T14:46:29.151Z,24.48
2022-12-18T14:48:57.313Z,24.87
2022-12-18T14:51:27.316Z,24.95
2022-12-18T14:54:02.796Z,24.84
2022-12-18T14:56:36.335Z,25.03
2022-12-18T14:59:24.174Z,24.78
2022-12-18T15:02:10.344Z,24.11
2022-12-18T15:04:42.076Z,23.84
2022-12-18T15:07:15.622Z,23.97
2022-12-18T15:10:05.148Z,23.99
2022-12-18T15:12:39.868Z,23.96
2022-12-18T15:15:35.626Z,23.73
2022-12-18T15:18:06.114Z,23.63
2022-12-18T15:20:40.593Z,23.54
2022-12-18T15:23:15.690Z,24.50
2022-12-18T15:25:42.665Z,24.99
2022-12-18T15:28:30.216Z,24.94
2022-12-18T15:31:15.015Z,25.50
2022-12-18T15:33:53.341Z,25.38
2022-12-18T15:36:26.422Z,25.31
2022-12-18T15:39:04.632Z,25.08
2022-12-18T15:41:35.744Z,25.13
2022-12-18T15:44:04.251Z,25.45
2022-12-18T15:46:31.163Z,25.51
2022-12-18T15:49:02.189Z,25.16
2022-12-18T15:51:34.703Z,25.23
2022-12-18T15:54:05.053Z,26.78
2022-12-18T15:56:32.824Z,26.22
2022-12-18T15:59:01.188Z,25.41
2022-12-18T16:01:31.910Z,26.69
2022-12-18T16:03:58.685Z,27.47
2022-12-18T16:06:36.403Z,28.70
2022-12-18T16:09:12.382Z,31.51
2022-12-18T16:11:43.979Z,35.91
2022-12-18T16:14:25.068Z,31.59
2022-12-18T16:17:01.986Z,30.36
2022-12-18T16:19:29.947Z,33.38
2022-12-18T16:21:58.527Z,35.53
2022-12-18T16:24:27.766Z,33.07
2022-12-18T16:26:55.382Z,37.62
2022-12-18T16:29:22.252Z,35.97
2022-12-18T16:31:48.881Z,35.79
2022-12-18T16:34:28.760Z,33.78
2022-12-18T16:37:00.284Z,34.11
2022-12-18T16:39:31.808Z,30.96
2022-12-18T16:41:58.963Z,27.64
2022-12-18T16:44:26.904Z,26.99
2022-12-18T16:46:53.553Z,25.60
2022-12-18T16:49:20.542Z,25.16
2022-12-18T16:51:47.522Z,25.64
2022-12-18T16:54:18.864Z,26.85
2022-12-18T16:56:46.415Z,28.40
2022-12-18T16:59:13.130Z,29.79
2022-12-18T17:01:39.922Z,30.20
2022-12-18T17:04:08.175Z,31.27
2022-12-18T17:06:40.523Z,32.92
2022-12-18T17:09:11.680Z,39.71
2022-12-18T17:11:38.290Z,36.26
2022-12-18T17:14:10.500Z,37.95
2022-12-18T17:16:37.262Z,46.73
2022-12-18T17:19:05.469Z,50.17
2022-12-18T17:21:32.331Z,32.39
2022-12-18T17:24:02.092Z,30.89
2022-12-18T17:26:29.944Z,31.58
2022-12-18T17:28:58.296Z,33.30
2022-12-18T17:31:27.799Z,32.53
2022-12-18T17:33:54.936Z,29.88
2022-12-18T17:36:22.939Z,30.97
2022-12-18T17:38:55.004Z,32.54
2022-12-18T17:41:22.521Z,32.23
2022-12-18T17:44:00.610Z,31.70
2022-12-18T17:46:29.333Z,30.50
2022-12-18T17:48:57.313Z,33.07
2022-12-18T17:51:23.970Z,31.03
2022-12-18T17:53:50.614Z,30.98
2022-12-18T17:56:20.163Z,31.57
2022-12-18T17:58:47.239Z,33.26
2022-12-18T18:01:17.606Z,37.13
2022-12-18T18:03:45.562Z,33.61
2022-12-18T18:06:15.132Z,36.42
2022-12-18T18:08:42.100Z,35.89
2022-12-18T18:11:16.633Z,33.69
2022-12-18T18:13:47.222Z,33.62
2022-12-18T18:16:14.170Z,32.14
2022-12-18T18:18:40.840Z,31.27
2022-12-18T18:21:08.899Z,30.18
2022-12-18T18:23:36.191Z,30.37
2022-12-18T18:26:07.524Z,29.20
2022-12-18T18:28:34.976Z,28.74
2022-12-18T18:31:05.798Z,29.15
2022-12-18T18:33:33.231Z,28.82
2022-12-18T18:36:00.227Z,28.83
2022-12-18T18:38:27.194Z,28.77
2022-12-18T18:41:02.000Z,29.33
2022-12-18T18:43:29.786Z,30.80
2022-12-18T18:46:01.277Z,30.12
2022-12-18T18:48:33.170Z,29.96
2022-12-18T18:51:08.118Z,30.68
2022-12-18T18:53:39.648Z,29.99
2022-12-18T18:56:37.729Z,30.28
2022-12-18T18:58:57.286Z,30.48
2022-12-18T19:01:25.419Z,29.33
2022-12-18T19:03:53.582Z,29.27
2022-12-18T19:06:26.567Z,30.74
2022-12-18T19:08:55.349Z,29.89
2022-12-18T19:11:23.920Z,30.38
2022-12-18T19:13:50.520Z,29.09
2022-12-18T19:16:17.185Z,28.65
2022-12-18T19:18:44.551Z,29.64
2022-12-18T19:21:11.672Z,30.13
2022-12-18T19:23:38.318Z,32.40
2022-12-18T19:28:54.276Z,35.49
2022-12-18T19:31:25.440Z,33.11
2022-12-18T19:33:53.774Z,32.53
2022-12-18T19:36:26.813Z,30.95
2022-12-18T19:38:57.002Z,29.82
2022-12-18T19:41:25.529Z,29.12
2022-12-18T19:43:53.657Z,28.50
2022-12-18T19:46:23.023Z,30.05
2022-12-18T19:48:50.488Z,29.14
2022-12-18T19:51:20.679Z,28.62
2022-12-18T19:53:47.329Z,30.73
2022-12-18T19:56:18.599Z,31.77
2022-12-18T19:58:45.976Z,29.94
2022-12-18T20:01:17.947Z,29.24
2022-12-18T20:03:48.494Z,29.52
2022-12-18T20:06:35.032Z,29.20
2022-12-18T20:09:06.451Z,29.20
2022-12-18T20:11:41.397Z,27.13
2022-12-18T20:14:14.073Z,28.60
2022-12-18T20:16:41.964Z,27.99
2022-12-18T20:19:12.858Z,27.56
2022-12-18T20:21:40.416Z,28.51
2022-12-18T20:24:07.847Z,27.53
2022-12-18T20:26:34.625Z,28.21
2022-12-18T20:29:01.269Z,29.33
2022-12-18T20:31:27.926Z,28.93
2022-12-18T20:34:00.337Z,28.09
2022-12-18T20:36:29.511Z,29.22
2022-12-18T20:38:59.268Z,32.00
2022-12-18T20:41:36.426Z,31.39
2022-12-18T20:44:08.550Z,31.78
2022-12-18T20:46:50.130Z,31.83
2022-12-18T20:49:16.826Z,30.27
2022-12-18T20:51:43.525Z,28.99
2022-12-18T20:54:11.940Z,28.63
2022-12-18T20:56:38.946Z,27.41
2022-12-18T20:59:05.682Z,27.02
2022-12-18T21:01:32.663Z,27.35
2022-12-18T21:03:59.585Z,26.87
2022-12-18T21:06:26.385Z,27.99
2022-12-18T21:08:53.016Z,27.61
2022-12-18T21:11:19.586Z,28.93
2022-12-18T21:13:46.679Z,28.99
2022-12-18T21:16:13.315Z,29.18
2022-12-18T21:18:40.091Z,28.28
2022-12-18T21:21:06.809Z,26.74
2022-12-18T21:23:33.540Z,27.13
2022-12-18T21:26:16.044Z,26.58
2022-12-18T21:28:42.955Z,26.54
2022-12-18T21:31:09.643Z,25.96
2022-12-18T21:33:38.713Z,24.85
2022-12-18T21:36:07.009Z,25.68
2022-12-18T21:38:33.845Z,25.79
2022-12-18T21:41:00.417Z,27.01
2022-12-18T21:43:27.225Z,27.73
2022-12-18T21:45:53.911Z,29.25
2022-12-18T21:48:20.581Z,28.52
2022-12-18T21:50:47.176Z,27.69
2022-12-18T21:53:13.791Z,27.75
2022-12-18T21:55:40.377Z,26.35
2022-12-18T21:58:07.132Z,27.70
2022-12-18T22:00:33.741Z,25.89
2022-12-18T22:03:17.275Z,24.70
2022-12-18T22:05:45.850Z,24.40
2022-12-18T22:08:14.151Z,24.47
2022-12-18T22:10:41.177Z,24.32
2022-12-18T22:13:07.857Z,24.22
2022-12-18T22:15:34.589Z,24.35
2022-12-18T22:18:01.243Z,24.01
2022-12-18T22:20:29.274Z,23.77
2022-12-18T22:22:56.869Z,22.74
2022-12-18T22:25:23.531Z,22.93
2022-12-18T22:27:50.180Z,21.74
2022-12-18T22:30:16.858Z,23.79
2022-12-18T22:32:43.535Z,22.69
2022-12-18T22:35:15.630Z,22.18
2022-12-18T22:37:42.686Z,21.23
2022-12-18T22:40:23.888Z,23.19
2022-12-18T22:42:52.647Z,24.71
2022-12-18T22:45:20.149Z,24.20
2022-12-18T22:47:46.765Z,24.30
2022-12-18T22:50:14.004Z,23.86
2022-12-18T22:52:40.865Z,25.13
2022-12-18T22:55:07.810Z,25.24
2022-12-18T22:57:34.580Z,25.66
2022-12-18T23:00:02.171Z,26.80
2022-12-18T23:02:29.040Z,26.60
2022-12-18T23:04:55.975Z,27.46
2022-12-18T23:07:22.577Z,27.65
2022-12-18T23:09:50.519Z,26.88
2022-12-18T23:12:19.080Z,26.15
2022-12-18T23:14:46.000Z,25.88
2022-12-18T23:17:13.007Z,25.13
2022-12-18T23:19:44.039Z,24.64
2022-12-18T23:22:13.861Z,25.10
2022-12-18T23:24:40.510Z,24.24
2022-12-18T23:27:11.368Z,24.94
2022-12-18T23:29:39.406Z,25.20
2022-12-18T23:32:06.152Z,24.32
2022-12-18T23:34:32.768Z,25.35
2022-12-18T23:36:59.880Z,23.30
2022-12-18T23:39:29.304Z,23.82
2022-12-18T23:42:00.336Z,22.14
2022-12-18T23:44:27.692Z,22.66
2022-12-18T23:46:55.217Z,22.77
2022-12-18T23:49:22.351Z,23.72
2022-12-18T23:51:49.424Z,21.83
2022-12-18T23:54:16.051Z,20.09
2022-12-18T23:56:42.913Z,20.64
2022-12-18T23:59:09.718Z,19.30
